createdAt,value
2023-07-28T00:01:18.632Z,2.92
2023-07-28T00:03:45.131Z,4.53
2023-07-28T00:06:11.556Z,6.40
2023-07-28T00:08:38.675Z,3.22
2023-07-28T00:11:10.489Z,2.90
2023-07-28T00:13:37.004Z,4.47
2023-07-28T00:16:03.561Z,3.55
2023-07-28T00:18:30.046Z,2.83
2023-07-28T00:20:56.481Z,3.47
2023-07-28T00:23:23.001Z,2.90
2023-07-28T00:25:49.638Z,3.05
2023-07-28T00:28:16.318Z,4.45
2023-07-28T00:30:43.071Z,3.15
2023-07-28T00:33:09.763Z,3.15
2023-07-28T00:35:38.186Z,3.95
2023-07-28T00:38:04.840Z,4.05
2023-07-28T00:40:33.687Z,3.08
2023-07-28T00:43:00.094Z,4.35
2023-07-28T00:45:26.865Z,2.72
2023-07-28T00:47:53.389Z,3.20
2023-07-28T00:50:20.130Z,2.92
2023-07-28T00:52:47.353Z,4.30
2023-07-28T00:55:13.849Z,5.95
2023-07-28T00:57:40.450Z,3.22
2023-07-28T01:00:07.667Z,5.93
2023-07-28T01:02:34.552Z,2.88
2023-07-28T01:05:01.157Z,3.60
2023-07-28T01:07:36.816Z,3.15
2023-07-28T01:10:07.912Z,3.75
2023-07-28T01:12:34.846Z,3.10
2023-07-28T01:15:01.361Z,3.40
2023-07-28T01:17:28.184Z,2.80
2023-07-28T01:19:54.832Z,4.15
2023-07-28T01:22:52.325Z,3.80
2023-07-28T01:25:33.285Z,2.97
2023-07-28T01:28:01.440Z,3.67
2023-07-28T01:30:29.319Z,2.90
2023-07-28T01:32:57.429Z,5.45
2023-07-28T01:35:25.841Z,3.60
2023-07-28T01:37:52.689Z,5.18
2023-07-28T01:40:19.848Z,3.38
2023-07-28T01:42:47.083Z,2.90
2023-07-28T01:45:13.650Z,3.92
2023-07-28T01:47:40.201Z,4.75
2023-07-28T01:50:07.443Z,3.15
2023-07-28T01:52:33.930Z,2.95
2023-07-28T01:55:00.363Z,3.33
2023-07-28T01:57:28.631Z,2.40
2023-07-28T01:59:55.814Z,3.38
2023-07-28T02:02:23.053Z,4.55
2023-07-28T02:04:49.632Z,3.13
2023-07-28T02:07:16.092Z,3.47
2023-07-28T02:09:42.614Z,2.88
2023-07-28T02:12:09.169Z,3.40
2023-07-28T02:14:35.749Z,2.42
2023-07-28T02:17:02.226Z,2.90
2023-07-28T02:19:28.790Z,4.93
2023-07-28T02:21:55.231Z,4.07
2023-07-28T02:24:21.966Z,3.53
2023-07-28T02:26:48.493Z,3.83
2023-07-28T02:29:15.338Z,2.10
2023-07-28T02:31:41.783Z,3.53
2023-07-28T02:34:08.401Z,3.22
2023-07-28T02:36:34.975Z,2.47
2023-07-28T02:39:01.708Z,3.22
2023-07-28T02:41:28.481Z,2.35
2023-07-28T02:43:55.482Z,3.53
2023-07-28T02:46:21.933Z,2.30
2023-07-28T02:48:48.925Z,3.35
2023-07-28T02:51:15.434Z,3.88
2023-07-28T02:53:41.929Z,3.78
2023-07-28T02:56:08.572Z,3.25
2023-07-28T02:58:35.065Z,2.72
2023-07-28T03:01:01.945Z,4.22
2023-07-28T03:03:35.937Z,2.83
2023-07-28T03:06:02.583Z,3.00
2023-07-28T03:08:29.150Z,4.63
2023-07-28T03:11:10.746Z,2.80
2023-07-28T03:13:37.172Z,2.60
2023-07-28T03:16:03.771Z,3.58
2023-07-28T03:18:30.544Z,2.80
2023-07-28T03:20:57.072Z,2.03
2023-07-28T03:23:23.624Z,3.90
2023-07-28T03:25:50.192Z,2.38
2023-07-28T03:28:17.200Z,2.80
2023-07-28T03:30:43.879Z,4.07
2023-07-28T03:33:10.484Z,2.90
2023-07-28T03:35:36.978Z,2.50
2023-07-28T03:38:08.551Z,2.70
2023-07-28T03:40:35.548Z,3.15
2023-07-28T03:43:03.477Z,3.03
2023-07-28T03:45:30.361Z,2.70
2023-07-28T03:47:57.167Z,2.42
2023-07-28T03:50:25.492Z,3.38
2023-07-28T03:52:51.945Z,2.50
2023-07-28T03:55:18.416Z,2.90
2023-07-28T03:57:45.131Z,3.90
2023-07-28T04:00:12.220Z,3.25
2023-07-28T04:02:42.766Z,3.80
2023-07-28T04:05:09.618Z,3.97
2023-07-28T04:07:36.185Z,2.40
2023-07-28T04:10:02.657Z,2.95
2023-07-28T04:12:29.145Z,4.53
2023-07-28T04:14:57.605Z,2.03
2023-07-28T04:17:24.502Z,2.03
2023-07-28T04:19:51.333Z,2.10
2023-07-28T04:22:22.279Z,2.10
2023-07-28T04:24:51.025Z,2.97
2023-07-28T04:27:17.600Z,2.20
2023-07-28T04:29:44.155Z,2.97
2023-07-28T04:32:12.596Z,2.30
2023-07-28T04:34:39.324Z,4.72
2023-07-28T04:37:12.898Z,2.28
2023-07-28T04:39:51.490Z,2.63
2023-07-28T04:42:18.013Z,2.00
2023-07-28T04:44:47.358Z,2.20
2023-07-28T04:47:14.593Z,2.17
2023-07-28T04:49:42.409Z,3.47
2023-07-28T04:52:09.402Z,2.85
2023-07-28T04:57:20.355Z,2.00
2023-07-28T04:59:47.228Z,1.48
2023-07-28T05:02:13.889Z,1.80
2023-07-28T05:04:40.873Z,2.55
2023-07-28T05:07:07.461Z,2.00
2023-07-28T05:09:33.959Z,1.90
2023-07-28T05:12:00.421Z,2.20
2023-07-28T05:14:26.962Z,3.20
2023-07-28T05:16:53.746Z,1.92
2023-07-28T05:19:39.384Z,2.85
2023-07-28T05:22:38.295Z,2.10
2023-07-28T05:25:05.568Z,2.60
2023-07-28T05:27:35.347Z,2.50
2023-07-28T05:30:01.853Z,2.45
2023-07-28T05:32:28.657Z,2.22
2023-07-28T05:35:21.678Z,2.67
2023-07-28T05:37:48.248Z,2.80
2023-07-28T05:40:15.119Z,2.72
2023-07-28T05:42:42.026Z,4.53
2023-07-28T05:45:09.742Z,4.38
2023-07-28T05:47:36.444Z,2.75
2023-07-28T05:50:05.457Z,3.97
2023-07-28T05:52:32.122Z,6.25
2023-07-28T05:54:59.276Z,3.17
2023-07-28T05:57:26.387Z,4.35
2023-07-28T05:59:53.259Z,4.47
2023-07-28T06:02:20.651Z,3.10
2023-07-28T06:04:53.136Z,2.67
2023-07-28T06:07:19.615Z,5.30
2023-07-28T06:09:46.192Z,3.92
2023-07-28T06:12:14.312Z,3.70
2023-07-28T06:14:40.892Z,3.92
2023-07-28T06:17:10.551Z,3.55
2023-07-28T06:19:37.639Z,3.35
2023-07-28T06:22:04.425Z,3.47
2023-07-28T06:24:33.557Z,4.20
2023-07-28T06:27:01.361Z,4.80
2023-07-28T06:29:27.952Z,4.15
2023-07-28T06:31:54.428Z,4.53
2023-07-28T06:34:21.121Z,4.30
2023-07-28T06:36:47.552Z,5.68
2023-07-28T06:39:14.659Z,4.32
2023-07-28T06:41:41.551Z,4.85
2023-07-28T06:44:09.351Z,4.57
2023-07-28T06:46:35.968Z,4.57
2023-07-28T06:49:02.488Z,5.38
2023-07-28T06:51:29.088Z,7.43
2023-07-28T06:53:55.551Z,7.88
2023-07-28T06:56:24.278Z,5.60
2023-07-28T06:59:00.873Z,7.03
2023-07-28T07:01:35.602Z,6.53
2023-07-28T07:04:02.351Z,7.20
2023-07-28T07:06:28.879Z,7.43
2023-07-28T07:08:55.396Z,8.30
2023-07-28T07:11:21.945Z,6.68
2023-07-28T07:13:48.446Z,8.75
2023-07-28T07:16:24.337Z,9.40
2023-07-28T07:18:54.492Z,7.68
2023-07-28T07:21:21.031Z,7.97
2023-07-28T07:23:47.458Z,9.50
2023-07-28T07:26:25.546Z,8.75
2023-07-28T07:28:51.964Z,10.52
2023-07-28T07:31:18.559Z,10.52
2023-07-28T07:33:45.157Z,10.13
2023-07-28T07:36:17.750Z,9.05
2023-07-28T07:38:49.697Z,11.98
2023-07-28T07:41:22.700Z,7.88
2023-07-28T07:43:50.706Z,8.65
2023-07-28T07:46:17.535Z,7.82
2023-07-28T07:48:44.317Z,8.27
2023-07-28T07:51:11.755Z,8.43
2023-07-28T07:53:38.461Z,5.63
2023-07-28T07:56:05.829Z,6.88
2023-07-28T07:58:32.440Z,6.15
2023-07-28T08:00:58.947Z,5.32
2023-07-28T08:03:25.723Z,5.68
2023-07-28T08:05:52.402Z,6.18
2023-07-28T08:08:20.886Z,5.30
2023-07-28T08:10:48.249Z,5.53
2023-07-28T08:13:15.670Z,3.60
2023-07-28T08:15:44.809Z,3.47
2023-07-28T08:18:12.893Z,3.58
2023-07-28T08:20:39.759Z,2.90
2023-07-28T08:23:06.186Z,3.17
2023-07-28T08:25:32.714Z,2.88
2023-07-28T08:27:59.364Z,4.00
2023-07-28T08:30:25.831Z,2.30
2023-07-28T08:32:52.325Z,2.83
2023-07-28T08:35:19.072Z,2.67
2023-07-28T08:37:45.565Z,3.10
2023-07-28T08:40:13.416Z,3.30
2023-07-28T08:42:41.099Z,2.38
2023-07-28T08:45:11.706Z,2.20
2023-07-28T08:47:38.662Z,2.13
2023-07-28T08:50:07.011Z,1.83
2023-07-28T08:52:33.844Z,1.50
2023-07-28T08:55:00.378Z,2.03
2023-07-28T08:57:27.864Z,1.60
2023-07-28T08:59:55.391Z,1.50
2023-07-28T09:02:22.725Z,1.77
2023-07-28T09:04:50.662Z,1.70
2023-07-28T09:07:17.529Z,1.35
2023-07-28T09:09:44.669Z,2.33
2023-07-28T09:12:11.151Z,2.50
2023-07-28T09:14:39.272Z,3.10
2023-07-28T09:17:12.313Z,3.67
2023-07-28T09:19:55.911Z,4.45
2023-07-28T09:22:23.769Z,4.55
2023-07-28T09:24:52.441Z,4.40
2023-07-28T09:27:23.940Z,3.97
2023-07-28T09:29:55.987Z,4.72
2023-07-28T09:32:32.923Z,4.75
2023-07-28T09:35:14.484Z,4.60
2023-07-28T09:37:46.402Z,4.07
2023-07-28T09:40:15.676Z,3.35
2023-07-28T09:42:44.411Z,3.63
2023-07-28T09:45:19.490Z,3.40
2023-07-28T09:47:58.626Z,3.03
2023-07-28T09:50:28.075Z,3.15
2023-07-28T09:52:58.332Z,3.60
2023-07-28T09:55:25.918Z,3.55
2023-07-28T09:57:54.987Z,4.20
2023-07-28T10:00:23.548Z,3.30
2023-07-28T10:02:51.617Z,4.63
2023-07-28T10:05:18.525Z,3.05
2023-07-28T10:07:47.637Z,3.58
2023-07-28T10:10:16.080Z,4.63
2023-07-28T10:12:43.635Z,3.90
2023-07-28T10:15:16.600Z,3.33
2023-07-28T10:18:00.795Z,3.83
2023-07-28T10:20:28.741Z,3.05
2023-07-28T10:23:03.777Z,3.83
2023-07-28T10:25:34.413Z,2.60
2023-07-28T10:28:00.954Z,2.58
2023-07-28T10:30:27.516Z,2.55
2023-07-28T10:32:56.372Z,2.78
2023-07-28T10:35:22.783Z,2.25
2023-07-28T10:37:49.525Z,3.28
2023-07-28T10:40:35.653Z,3.33
2023-07-28T10:43:03.932Z,3.78
2023-07-28T10:45:32.560Z,3.00
2023-07-28T10:48:04.516Z,2.72
2023-07-28T10:50:32.491Z,2.60
2023-07-28T10:52:59.479Z,3.58
2023-07-28T10:55:29.029Z,2.60
2023-07-28T10:57:59.311Z,2.55
2023-07-28T11:00:26.098Z,1.98
2023-07-28T11:02:56.906Z,3.38
2023-07-28T11:05:28.530Z,1.88
2023-07-28T11:07:57.248Z,2.50
2023-07-28T11:10:24.700Z,2.00
2023-07-28T11:12:52.956Z,1.92
2023-07-28T11:15:20.312Z,2.35
2023-07-28T11:17:51.532Z,0.68
2023-07-28T11:20:19.048Z,3.83
2023-07-28T11:22:47.874Z,1.60
2023-07-28T11:25:14.577Z,0.90
2023-07-28T11:27:41.087Z,2.33
2023-07-28T11:30:11.139Z,1.52
2023-07-28T11:32:38.686Z,0.65
2023-07-28T11:35:06.432Z,0.90
2023-07-28T11:37:34.923Z,0.95
2023-07-28T11:40:05.706Z,0.65
2023-07-28T11:42:32.344Z,1.80
2023-07-28T11:44:59.914Z,0.80
2023-07-28T11:47:26.389Z,0.75
2023-07-28T11:49:52.923Z,0.93
2023-07-28T11:52:20.857Z,2.40
2023-07-28T11:54:48.263Z,0.60
2023-07-28T11:57:14.820Z,1.40
2023-07-28T11:59:41.630Z,0.80
2023-07-28T12:07:18.728Z,0.77
2023-07-28T12:09:50.241Z,0.43
2023-07-28T12:16:06.013Z,0.65
2023-07-28T12:20:12.558Z,0.20
2023-07-28T12:22:41.772Z,0.80
2023-07-28T12:25:09.199Z,0.88
2023-07-28T12:27:36.455Z,0.38
2023-07-28T12:30:05.215Z,0.68
2023-07-28T12:32:35.595Z,0.98
2023-07-28T12:35:14.527Z,0.85
2023-07-28T12:41:09.029Z,1.70
2023-07-28T12:46:11.177Z,0.40
2023-07-28T12:50:45.875Z,0.50
2023-07-28T12:53:16.247Z,0.68
2023-07-28T13:03:13.938Z,0.70
2023-07-28T13:05:40.641Z,1.00
2023-07-28T13:08:09.713Z,0.30
2023-07-28T13:13:06.487Z,0.15
2023-07-28T13:15:33.066Z,1.65
2023-07-28T13:17:59.603Z,0.30
2023-07-28T13:20:26.270Z,1.00
2023-07-28T13:22:53.672Z,1.02
2023-07-28T13:25:20.147Z,0.60
2023-07-28T13:27:46.653Z,0.82
2023-07-28T13:30:13.194Z,0.47
2023-07-28T13:32:39.653Z,0.80
2023-07-28T13:35:06.674Z,0.30
2023-07-28T13:37:33.123Z,0.50
2023-07-28T13:39:59.837Z,1.92
2023-07-28T13:42:26.375Z,1.70
2023-07-28T13:47:22.290Z,1.90
2023-07-28T13:49:52.357Z,1.63
2023-07-28T13:52:21.705Z,0.57
2023-07-28T13:57:19.750Z,0.75
2023-07-28T13:59:46.401Z,0.30
2023-07-28T14:02:13.451Z,1.13
2023-07-28T14:04:40.950Z,0.50
2023-07-28T14:07:07.547Z,1.35
2023-07-28T14:09:34.056Z,0.73
2023-07-28T14:12:01.066Z,1.42
2023-07-28T14:14:27.507Z,2.15
2023-07-28T14:16:54.131Z,0.50
2023-07-28T14:19:20.651Z,1.98
2023-07-28T14:21:47.152Z,2.55
2023-07-28T14:24:13.720Z,0.80
2023-07-28T14:26:40.222Z,0.70
2023-07-28T14:29:06.930Z,1.73
2023-07-28T14:31:33.431Z,1.77
2023-07-28T14:33:59.936Z,0.60
2023-07-28T14:36:26.789Z,1.48
2023-07-28T14:38:53.188Z,1.05
2023-07-28T14:41:20.268Z,0.60
2023-07-28T14:43:46.948Z,1.00
2023-07-28T14:46:13.534Z,1.85
2023-07-28T14:48:40.084Z,0.85
2023-07-28T14:51:06.897Z,1.60
2023-07-28T14:53:35.705Z,1.77
2023-07-28T14:56:05.104Z,2.67
2023-07-28T14:58:31.901Z,3.60
2023-07-28T15:00:59.370Z,0.85
2023-07-28T15:03:27.976Z,1.00
2023-07-28T15:05:56.034Z,2.30
2023-07-28T15:08:22.761Z,0.95
2023-07-28T15:10:49.332Z,1.08
2023-07-28T15:13:15.770Z,0.90
2023-07-28T15:15:42.243Z,1.00
2023-07-28T15:18:08.784Z,0.85
2023-07-28T15:20:35.460Z,1.00
2023-07-28T15:23:01.966Z,0.70
2023-07-28T15:25:28.393Z,1.08
2023-07-28T15:27:54.854Z,1.13
2023-07-28T15:30:21.541Z,2.53
2023-07-28T15:32:48.197Z,2.45
2023-07-28T15:35:15.114Z,1.35
2023-07-28T15:37:41.810Z,3.15
2023-07-28T15:40:09.013Z,1.73
2023-07-28T15:42:36.985Z,3.38
2023-07-28T15:45:03.957Z,0.80
2023-07-28T15:47:34.001Z,2.25
2023-07-28T15:50:01.538Z,1.33
2023-07-28T15:52:28.078Z,2.10
2023-07-28T15:54:54.653Z,1.73
2023-07-28T15:57:21.134Z,1.88
2023-07-28T15:59:47.764Z,1.13
2023-07-28T16:02:14.228Z,1.88
2023-07-28T16:04:40.945Z,1.83
2023-07-28T16:07:07.863Z,1.10
2023-07-28T16:09:34.401Z,3.42
2023-07-28T16:12:00.948Z,1.40
2023-07-28T16:14:27.353Z,1.42
2023-07-28T16:16:53.905Z,2.15
2023-07-28T16:19:20.380Z,1.80
2023-07-28T16:21:46.827Z,1.50
2023-07-28T16:24:13.664Z,1.50
2023-07-28T16:26:40.206Z,2.00
2023-07-28T16:29:08.260Z,2.53
2023-07-28T16:31:35.029Z,2.78
2023-07-28T16:34:01.936Z,2.55
2023-07-28T16:36:28.874Z,2.28
2023-07-28T16:38:55.610Z,1.40
2023-07-28T16:41:22.096Z,1.48
2023-07-28T16:43:48.548Z,1.17
2023-07-28T16:46:15.117Z,1.98
2023-07-28T16:48:41.640Z,1.45
2023-07-28T16:51:08.303Z,2.78
2023-07-28T16:53:34.782Z,2.65
2023-07-28T16:56:01.410Z,2.92
2023-07-28T16:58:27.855Z,2.03
2023-07-28T17:00:54.384Z,3.80
2023-07-28T17:03:21.086Z,3.55
2023-07-28T17:05:47.673Z,1.95
2023-07-28T17:08:14.098Z,1.65
2023-07-28T17:10:40.512Z,3.78
2023-07-28T17:13:07.222Z,1.85
2023-07-28T17:15:40.135Z,2.35
2023-07-28T17:18:07.640Z,1.58
2023-07-28T17:20:34.316Z,2.63
2023-07-28T17:23:00.794Z,1.27
2023-07-28T17:25:27.378Z,1.88
2023-07-28T17:27:54.036Z,1.77
2023-07-28T17:30:20.833Z,2.05
2023-07-28T17:32:47.412Z,2.05
2023-07-28T17:35:14.227Z,6.78
2023-07-28T17:37:40.730Z,1.75
2023-07-28T17:40:08.049Z,5.47
2023-07-28T17:42:34.604Z,2.10
2023-07-28T17:45:02.041Z,2.08
2023-07-28T17:47:28.681Z,1.98
2023-07-28T17:49:55.118Z,3.03
2023-07-28T17:52:21.823Z,2.38
2023-07-28T17:54:48.235Z,2.38
2023-07-28T17:57:14.721Z,1.83
2023-07-28T17:59:41.171Z,2.22
2023-07-28T18:02:07.776Z,4.82
2023-07-28T18:04:35.007Z,2.03
2023-07-28T18:07:01.553Z,1.80
2023-07-28T18:09:27.987Z,5.20
2023-07-28T18:11:54.443Z,3.10
2023-07-28T18:14:21.792Z,3.00
2023-07-28T18:16:48.562Z,2.50
2023-07-28T18:19:15.099Z,1.88
2023-07-28T18:21:41.637Z,3.03
2023-07-28T18:24:08.354Z,3.70
2023-07-28T18:26:34.833Z,3.28
2023-07-28T18:29:01.347Z,2.70
2023-07-28T18:31:27.849Z,7.15
2023-07-28T18:33:54.370Z,2.50
2023-07-28T18:36:21.204Z,2.42
2023-07-28T18:38:47.619Z,2.22
2023-07-28T18:41:14.271Z,1.92
2023-07-28T18:43:40.862Z,2.53
2023-07-28T18:46:07.387Z,1.92
2023-07-28T18:48:34.360Z,2.67
2023-07-28T18:51:02.703Z,2.42
2023-07-28T18:53:29.668Z,2.15
2023-07-28T18:55:56.133Z,4.10
2023-07-28T18:58:22.753Z,2.45
2023-07-28T19:00:49.806Z,2.75
2023-07-28T19:03:16.417Z,2.05
2023-07-28T19:05:43.040Z,2.50
2023-07-28T19:08:10.183Z,2.40
2023-07-28T19:10:36.770Z,2.80
2023-07-28T19:13:03.268Z,2.70
2023-07-28T19:15:45.866Z,3.50
2023-07-28T19:18:14.809Z,2.88
2023-07-28T19:20:41.311Z,2.58
2023-07-28T19:23:08.301Z,4.43
2023-07-28T19:25:35.044Z,2.55
2023-07-28T19:28:02.320Z,3.13
2023-07-28T19:30:29.072Z,3.75
2023-07-28T19:32:55.736Z,2.67
2023-07-28T19:35:22.804Z,6.05
2023-07-28T19:37:49.345Z,4.53
2023-07-28T19:40:16.059Z,2.70
2023-07-28T19:42:42.526Z,3.53
2023-07-28T19:45:09.382Z,3.78
2023-07-28T19:47:38.105Z,2.90
2023-07-28T19:50:13.283Z,2.90
2023-07-28T19:52:42.915Z,2.33
2023-07-28T19:55:09.604Z,4.63
2023-07-28T19:57:36.605Z,3.65
2023-07-28T20:00:04.817Z,2.65
2023-07-28T20:02:36.255Z,2.90
2023-07-28T20:05:02.895Z,3.10
2023-07-28T20:07:29.434Z,3.67
2023-07-28T20:09:55.870Z,2.88
2023-07-28T20:12:23.820Z,4.60
2023-07-28T20:14:50.417Z,3.88
2023-07-28T20:17:16.858Z,3.22
2023-07-28T20:19:43.285Z,4.95
2023-07-28T20:22:10.180Z,3.33
2023-07-28T20:24:36.604Z,3.17
2023-07-28T20:27:03.166Z,4.75
2023-07-28T20:29:30.164Z,3.00
2023-07-28T20:31:56.586Z,4.43
2023-07-28T20:34:24.220Z,4.90
2023-07-28T20:36:51.956Z,3.05
2023-07-28T20:39:18.447Z,5.53
2023-07-28T20:41:44.925Z,5.05
2023-07-28T20:44:11.415Z,5.93
2023-07-28T20:46:38.954Z,4.85
2023-07-28T20:49:06.208Z,4.43
2023-07-28T20:51:34.097Z,3.95
2023-07-28T20:54:00.949Z,4.47
2023-07-28T20:56:27.692Z,10.40
2023-07-28T20:58:54.181Z,4.15
2023-07-28T21:01:20.698Z,3.45
2023-07-28T21:03:47.428Z,5.57
2023-07-28T21:06:17.111Z,5.20
2023-07-28T21:08:43.578Z,3.85
2023-07-28T21:11:10.426Z,4.32
2023-07-28T21:13:37.131Z,3.35
2023-07-28T21:16:05.465Z,3.53
2023-07-28T21:18:32.542Z,3.38
2023-07-28T21:20:59.042Z,4.28
2023-07-28T21:23:25.720Z,4.35
2023-07-28T21:25:52.331Z,2.70
2023-07-28T21:28:19.067Z,2.97
2023-07-28T21:30:46.813Z,3.83
2023-07-28T21:33:13.407Z,2.10
2023-07-28T21:35:39.841Z,2.45
2023-07-28T21:38:07.076Z,2.45
2023-07-28T21:40:33.553Z,2.78
2023-07-28T21:42:59.958Z,2.97
2023-07-28T21:45:26.425Z,2.15
2023-07-28T21:47:53.155Z,3.13
2023-07-28T21:50:19.857Z,3.30
2023-07-28T21:52:46.584Z,3.20
2023-07-28T21:55:14.512Z,2.70
2023-07-28T21:57:46.475Z,2.40
2023-07-28T22:00:14.779Z,3.33
2023-07-28T22:02:41.540Z,2.15
2023-07-28T22:05:09.472Z,4.47
2023-07-28T22:07:36.713Z,3.65
2023-07-28T22:10:06.947Z,2.67
2023-07-28T22:12:34.478Z,2.42
2023-07-28T22:15:02.522Z,2.67
2023-07-28T22:17:29.114Z,3.45
2023-07-28T22:19:55.631Z,2.45
2023-07-28T22:22:22.138Z,2.83
2023-07-28T22:24:48.855Z,3.17
2023-07-28T22:27:15.419Z,7.47
2023-07-28T22:29:42.315Z,1.95
2023-07-28T22:32:08.842Z,3.05
2023-07-28T22:34:35.764Z,2.35
2023-07-28T22:37:02.203Z,4.18
2023-07-28T22:39:29.390Z,2.50
2023-07-28T22:41:55.872Z,2.55
2023-07-28T22:44:22.318Z,2.45
2023-07-28T22:46:48.862Z,3.22
2023-07-28T22:49:15.302Z,3.30
2023-07-28T22:51:41.928Z,4.45
2023-07-28T22:54:08.432Z,1.92
2023-07-28T22:56:35.122Z,2.17
2023-07-28T22:59:01.686Z,4.50
2023-07-28T23:01:28.178Z,2.80
2023-07-28T23:03:54.677Z,3.38
2023-07-28T23:06:21.466Z,3.58
2023-07-28T23:08:48.174Z,3.35
2023-07-28T23:11:14.664Z,2.33
2023-07-28T23:13:41.152Z,3.80
2023-07-28T23:16:07.656Z,3.22
2023-07-28T23:18:34.397Z,2.70
2023-07-28T23:21:01.102Z,4.22
2023-07-28T23:23:27.971Z,3.13
2023-07-28T23:25:54.571Z,3.20
2023-07-28T23:28:21.054Z,4.05
2023-07-28T23:30:47.611Z,2.22
2023-07-28T23:33:14.204Z,3.85
2023-07-28T23:35:40.945Z,1.67
2023-07-28T23:38:07.391Z,2.10
2023-07-28T23:40:33.850Z,2.28
2023-07-28T23:43:00.574Z,2.13
2023-07-28T23:45:27.202Z,2.90
2023-07-28T23:47:54.155Z,5.03
2023-07-28T23:50:20.993Z,3.17
2023-07-28T23:52:47.446Z,3.97
2023-07-28T23:55:14.290Z,4.13
2023-07-28T23:57:41.231Z,3.08
